sensor_id;sensor_type;location;lat;lon;timestamp;pressure;altitude;pressure_sealevel;temperature;humidity
51876;BME280;34054;52.100;5.116;2024-01-30T00:00:26;102393.75;;;8.67;100.00
51876;BME280;34054;52.100;5.116;2024-01-30T00:00:57;102402.53;;;8.76;100.00
51876;BME280;34054;52.100;5.116;2024-01-30T00:01:30;102395.47;;;8.82;100.00
51876;BME280;34054;52.100;5.116;2024-01-30T00:02:02;102397.50;;;8.73;100.00
51876;BME280;34054;52.100;5.116;2024-01-30T00:02:33;102396.25;;;8.75;100.00
51876;BME280;34054;52.100;5.116;2024-01-30T00:03:05;102399.00;;;8.82;100.00
51876;BME280;34054;52.100;5.116;2024-01-30T00:03:38;102392.94;;;8.73;100.00
51876;BME280;34054;52.100;5.116;2024-01-30T00:04:10;102401.47;;;8.63;100.00
51876;BME280;34054;52.100;5.116;2024-01-30T00:04:42;102390.44;;;8.65;100.00
51876;BME280;34054;52.100;5.116;2024-01-30T00:05:13;102400.84;;;8.61;100.00
51876;BME280;34054;52.100;5.116;2024-01-30T00:05:46;102387.72;;;8.72;100.00
51876;BME280;34054;52.100;5.116;2024-01-30T00:06:18;102395.84;;;8.72;100.00
51876;BME280;34054;52.100;5.116;2024-01-30T00:06:51;102394.59;;;8.74;100.00
51876;BME280;34054;52.100;5.116;2024-01-30T00:07:23;102389.00;;;8.76;100.00
51876;BME280;34054;52.100;5.116;2024-01-30T00:07:56;102390.44;;;8.72;100.00
51876;BME280;34054;52.100;5.116;2024-01-30T00:08:28;102392.31;;;8.71;100.00
51876;BME280;34054;52.100;5.116;2024-01-30T00:09:01;102391.69;;;8.76;100.00
51876;BME280;34054;52.100;5.116;2024-01-30T00:09:33;102386.47;;;8.81;100.00
51876;BME280;34054;52.100;5.116;2024-01-30T00:10:06;102386.69;;;8.79;100.00
51876;BME280;34054;52.100;5.116;2024-01-30T00:10:38;102397.13;;;8.76;100.00
51876;BME280;34054;52.100;5.116;2024-01-30T00:11:09;102392.94;;;8.67;100.00
51876;BME280;34054;52.100;5.116;2024-01-30T00:11:41;102388.16;;;8.69;100.00
51876;BME280;34054;52.100;5.116;2024-01-30T00:12:12;102388.34;;;8.60;100.00
51876;BME280;34054;52.100;5.116;2024-01-30T00:12:45;102389.81;;;8.63;100.00
51876;BME280;34054;52.100;5.116;2024-01-30T00:13:17;102381.03;;;8.61;100.00
51876;BME280;34054;52.100;5.116;2024-01-30T00:13:50;102393.31;;;8.63;100.00
51876;BME280;34054;52.100;5.116;2024-01-30T00:14:22;102392.72;;;8.68;100.00
51876;BME280;34054;52.100;5.116;2024-01-30T00:14:54;102387.09;;;8.76;100.00
51876;BME280;34054;52.100;5.116;2024-01-30T00:15:26;102386.28;;;8.83;100.00
51876;BME280;34054;52.100;5.116;2024-01-30T00:15:57;102385.84;;;8.66;100.00
51876;BME280;34054;52.100;5.116;2024-01-30T00:16:30;102387.31;;;8.75;100.00
51876;BME280;34054;52.100;5.116;2024-01-30T00:17:02;102392.09;;;8.73;100.00
51876;BME280;34054;52.100;5.116;2024-01-30T00:17:33;102387.91;;;8.63;100.00
51876;BME280;34054;52.100;5.116;2024-01-30T00:18:05;102384.38;;;8.63;100.00
51876;BME280;34054;52.100;5.116;2024-01-30T00:18:37;102387.50;;;8.67;100.00
51876;BME280;34054;52.100;5.116;2024-01-30T00:19:10;102366.25;;;8.57;100.00
51876;BME280;34054;52.100;5.116;2024-01-30T00:19:42;102380.41;;;8.66;100.00
51876;BME280;34054;52.100;5.116;2024-01-30T00:20:14;102380.63;;;8.77;100.00
51876;BME280;34054;52.100;5.116;2024-01-30T00:20:45;102389.59;;;8.71;100.00
51876;BME280;34054;52.100;5.116;2024-01-30T00:21:18;102380.22;;;8.74;100.00
51876;BME280;34054;52.100;5.116;2024-01-30T00:21:51;102382.94;;;8.74;100.00
51876;BME280;34054;52.100;5.116;2024-01-30T00:22:23;102379.59;;;8.78;100.00
51876;BME280;34054;52.100;5.116;2024-01-30T00:22:54;102384.59;;;8.75;100.00
51876;BME280;34054;52.100;5.116;2024-01-30T00:23:27;102384.63;;;8.82;100.00
51876;BME280;34054;52.100;5.116;2024-01-30T00:24:00;102384.22;;;8.78;100.00
51876;BME280;34054;52.100;5.116;2024-01-30T00:24:32;102379.38;;;8.80;100.00
51876;BME280;34054;52.100;5.116;2024-01-30T00:25:04;102379.19;;;8.82;100.00
51876;BME280;34054;52.100;5.116;2024-01-30T00:25:37;102379.38;;;8.80;100.00
51876;BME280;34054;52.100;5.116;2024-01-30T00:26:09;102379.81;;;8.77;100.00
51876;BME280;34054;52.100;5.116;2024-01-30T00:26:41;102383.56;;;8.76;100.00
51876;BME280;34054;52.100;5.116;2024-01-30T00:27:12;102382.31;;;8.78;100.00
51876;BME280;34054;52.100;5.116;2024-01-30T00:27:45;102375.00;;;8.66;100.00
51876;BME280;34054;52.100;5.116;2024-01-30T00:28:16;102384.16;;;8.64;100.00
51876;BME280;34054;52.100;5.116;2024-01-30T00:28:48;102386.25;;;8.69;100.00
51876;BME280;34054;52.100;5.116;2024-01-30T00:29:20;102382.09;;;8.67;100.00
51876;BME280;34054;52.100;5.116;2024-01-30T00:29:53;102374.38;;;8.70;100.00
51876;BME280;34054;52.100;5.116;2024-01-30T00:30:25;102366.69;;;8.60;100.00
51876;BME280;34054;52.100;5.116;2024-01-30T00:30:57;102379.78;;;8.63;100.00
51876;BME280;34054;52.100;5.116;2024-01-30T00:31:28;102381.88;;;8.68;100.00
51876;BME280;34054;52.100;5.116;2024-01-30T00:32:01;102386.28;;;8.76;100.00
51876;BME280;34054;52.100;5.116;2024-01-30T00:32:33;102381.47;;;8.64;100.00
51876;BME280;34054;52.100;5.116;2024-01-30T00:33:04;102379.59;;;8.58;100.00
51876;BME280;34054;52.100;5.116;2024-01-30T00:33:37;102377.09;;;8.57;100.00
51876;BME280;34054;52.100;5.116;2024-01-30T00:34:09;102377.72;;;8.66;100.00
51876;BME280;34054;52.100;5.116;2024-01-30T00:34:41;102383.34;;;8.71;100.00
51876;BME280;34054;52.100;5.116;2024-01-30T00:35:13;102379.19;;;8.61;100.00
51876;BME280;34054;52.100;5.116;2024-01-30T00:35:45;102371.06;;;8.61;100.00
51876;BME280;34054;52.100;5.116;2024-01-30T00:36:17;102377.06;;;8.63;100.00
51876;BME280;34054;52.100;5.116;2024-01-30T00:36:49;102372.94;;;8.68;100.00
51876;BME280;34054;52.100;5.116;2024-01-30T00:37:20;102377.50;;;8.74;100.00
51876;BME280;34054;52.100;5.116;2024-01-30T00:37:53;102374.59;;;8.75;100.00
51876;BME280;34054;52.100;5.116;2024-01-30T00:38:24;102368.34;;;8.75;100.00
51876;BME280;34054;52.100;5.116;2024-01-30T00:38:56;102371.91;;;8.69;100.00
51876;BME280;34054;52.100;5.116;2024-01-30T00:39:29;102381.25;;;8.73;100.00
51876;BME280;34054;52.100;5.116;2024-01-30T00:40:01;102371.91;;;8.69;100.00
51876;BME280;34054;52.100;5.116;2024-01-30T00:40:34;102378.78;;;8.78;100.00
51876;BME280;34054;52.100;5.116;2024-01-30T00:41:07;102381.91;;;8.82;100.00
51876;BME280;34054;52.100;5.116;2024-01-30T00:41:39;102382.94;;;8.80;100.00
51876;BME280;34054;52.100;5.116;2024-01-30T00:42:10;102380.44;;;8.79;100.00
51876;BME280;34054;52.100;5.116;2024-01-30T00:42:43;102382.31;;;8.78;100.00
51876;BME280;34054;52.100;5.116;2024-01-30T00:43:15;102371.47;;;8.72;100.00
51876;BME280;34054;52.100;5.116;2024-01-30T00:43:47;102380.22;;;8.74;100.00
51876;BME280;34054;52.100;5.116;2024-01-30T00:44:18;102381.88;;;8.68;100.00
51876;BME280;34054;52.100;5.116;2024-01-30T00:44:51;102376.28;;;8.70;100.00
51876;BME280;34054;52.100;5.116;2024-01-30T00:45:23;102378.75;;;8.64;100.00
51876;BME280;34054;52.100;5.116;2024-01-30T00:45:55;102382.13;;;8.73;100.00
51876;BME280;34054;52.100;5.116;2024-01-30T00:46:26;102377.91;;;8.71;100.00
51876;BME280;34054;52.100;5.116;2024-01-30T00:46:59;102384.38;;;8.76;100.00
51876;BME280;34054;52.100;5.116;2024-01-30T00:47:30;102375.84;;;8.79;100.00
51876;BME280;34054;52.100;5.116;2024-01-30T00:48:04;102379.19;;;8.75;100.00
51876;BME280;34054;52.100;5.116;2024-01-30T00:48:36;102377.50;;;8.67;100.00
51876;BME280;34054;52.100;5.116;2024-01-30T00:49:09;102376.47;;;8.75;100.00
51876;BME280;34054;52.100;5.116;2024-01-30T00:49:41;102368.56;;;8.67;100.00
51876;BME280;34054;52.100;5.116;2024-01-30T00:50:13;102376.88;;;8.58;100.00
51876;BME280;34054;52.100;5.116;2024-01-30T00:50:44;102373.75;;;8.68;100.00
51876;BME280;34054;52.100;5.116;2024-01-30T00:51:17;102376.88;;;8.72;100.00
51876;BME280;34054;52.100;5.116;2024-01-30T00:51:48;102376.47;;;8.68;100.00
51876;BME280;34054;52.100;5.116;2024-01-30T00:52:20;102376.47;;;8.68;100.00
51876;BME280;34054;52.100;5.116;2024-01-30T00:52:51;102376.47;;;8.68;100.00
51876;BME280;34054;52.100;5.116;2024-01-30T00:53:24;102368.56;;;8.67;100.00
51876;BME280;34054;52.100;5.116;2024-01-30T00:53:56;102372.91;;;8.54;100.00
51876;BME280;34054;52.100;5.116;2024-01-30T00:54:29;102375.22;;;8.71;100.00
51876;BME280;34054;52.100;5.116;2024-01-30T00:55:01;102375.44;;;8.76;100.00
51876;BME280;34054;52.100;5.116;2024-01-30T00:55:33;102366.47;;;8.69;100.00
51876;BME280;34054;52.100;5.116;2024-01-30T00:56:05;102377.50;;;8.74;100.00
51876;BME280;34054;52.100;5.116;2024-01-30T00:56:37;102372.50;;;8.64;100.00
51876;BME280;34054;52.100;5.116;2024-01-30T00:57:09;102371.25;;;8.67;100.00
51876;BME280;34054;52.100;5.116;2024-01-30T00:57:41;102370.22;;;8.68;100.00
51876;BME280;34054;52.100;5.116;2024-01-30T00:58:13;102363.53;;;8.57;100.00
51876;BME280;34054;52.100;5.116;2024-01-30T00:58:45;102376.03;;;8.64;100.00
51876;BME280;34054;52.100;5.116;2024-01-30T00:59:16;102374.38;;;8.63;100.00
51876;BME280;34054;52.100;5.116;2024-01-30T00:59:49;102379.59;;;8.72;100.00
51876;BME280;34054;52.100;5.116;2024-01-30T01:00:20;102373.38;;;8.78;100.00
51876;BME280;34054;52.100;5.116;2024-01-30T01:00:52;102373.78;;;8.75;100.00
51876;BME280;34054;52.100;5.116;2024-01-30T01:01:24;102371.06;;;8.75;100.00
51876;BME280;34054;52.100;5.116;2024-01-30T01:01:56;102367.94;;;8.78;100.00
51876;BME280;34054;52.100;5.116;2024-01-30T01:02:28;102373.78;;;8.82;100.00
51876;BME280;34054;52.100;5.116;2024-01-30T01:03:00;102373.38;;;8.78;100.00
51876;BME280;34054;52.100;5.116;2024-01-30T01:03:31;102366.69;;;8.74;100.00
51876;BME280;34054;52.100;5.116;2024-01-30T01:04:04;102370.03;;;8.76;100.00
51876;BME280;34054;52.100;5.116;2024-01-30T01:04:35;102362.94;;;8.61;100.00
51876;BME280;34054;52.100;5.116;2024-01-30T01:05:07;102365.19;;;8.58;100.00
51876;BME280;34054;52.100;5.116;2024-01-30T01:05:39;102355.63;;;8.48;100.00
51876;BME280;34054;52.100;5.116;2024-01-30T01:06:11;102368.09;;;8.49;100.00
51876;BME280;34054;52.100;5.116;2024-01-30T01:06:43;102358.31;;;8.55;100.00
51876;BME280;34054;52.100;5.116;2024-01-30T01:07:15;102354.16;;;8.59;100.00
51876;BME280;34054;52.100;5.116;2024-01-30T01:07:47;102354.34;;;8.58;100.00
51876;BME280;34054;52.100;5.116;2024-01-30T01:08:19;102355.84;;;8.60;100.00
51876;BME280;34054;52.100;5.116;2024-01-30T01:08:51;102343.72;;;8.49;100.00
51876;BME280;34054;52.100;5.116;2024-01-30T01:09:22;102344.31;;;8.45;100.00
51876;BME280;34054;52.100;5.116;2024-01-30T01:09:56;102345.81;;;8.47;100.00
51876;BME280;34054;52.100;5.116;2024-01-30T01:10:28;102345.16;;;8.45;100.00
51876;BME280;34054;52.100;5.116;2024-01-30T01:10:59;102343.72;;;8.49;100.00
51876;BME280;34054;52.100;5.116;2024-01-30T01:11:32;102339.38;;;8.55;100.00
51876;BME280;34054;52.100;5.116;2024-01-30T01:12:04;102348.94;;;8.51;100.00
51876;BME280;34054;52.100;5.116;2024-01-30T01:12:36;102351.44;;;8.53;100.00
51876;BME280;34054;52.100;5.116;2024-01-30T01:13:08;102343.31;;;8.53;100.00
51876;BME280;34054;52.100;5.116;2024-01-30T01:13:41;102342.69;;;8.51;100.00
51876;BME280;34054;52.100;5.116;2024-01-30T01:14:12;102350.19;;;8.55;100.00
51876;BME280;34054;52.100;5.116;2024-01-30T01:14:44;102353.72;;;8.49;100.00
51876;BME280;34054;52.100;5.116;2024-01-30T01:15:15;102352.25;;;8.46;100.00
51876;BME280;34054;52.100;5.116;2024-01-30T01:15:48;102347.44;;;8.42;100.00
51876;BME280;34054;52.100;5.116;2024-01-30T01:16:20;102350.16;;;8.42;100.00
51876;BME280;34054;52.100;5.116;2024-01-30T01:16:51;102344.31;;;8.45;100.00
51876;BME280;34054;52.100;5.116;2024-01-30T01:17:23;102352.91;;;8.55;100.00
51876;BME280;34054;52.100;5.116;2024-01-30T01:17:55;102352.91;;;8.55;100.00
51876;BME280;34054;52.100;5.116;2024-01-30T01:18:27;102353.31;;;8.59;100.00
51876;BME280;34054;52.100;5.116;2024-01-30T01:18:59;102358.31;;;8.55;100.00
51876;BME280;34054;52.100;5.116;2024-01-30T01:19:31;102350.00;;;8.57;100.00
51876;BME280;34054;52.100;5.116;2024-01-30T01:20:05;102332.28;;;8.54;100.00
51876;BME280;34054;52.100;5.116;2024-01-30T01:20:37;102349.56;;;8.60;100.00
51876;BME280;34054;52.100;5.116;2024-01-30T01:21:09;102350.63;;;8.59;100.00
51876;BME280;34054;52.100;5.116;2024-01-30T01:21:40;102354.34;;;8.58;100.00
51876;BME280;34054;52.100;5.116;2024-01-30T01:22:13;102350.41;;;8.54;100.00
51876;BME280;34054;52.100;5.116;2024-01-30T01:22:44;102356.66;;;8.54;100.00
51876;BME280;34054;52.100;5.116;2024-01-30T01:23:16;102348.75;;;8.53;100.00
51876;BME280;34054;52.100;5.116;2024-01-30T01:23:48;102352.47;;;8.52;100.00
51876;BME280;34054;52.100;5.116;2024-01-30T01:24:20;102353.34;;;8.52;100.00
51876;BME280;34054;52.100;5.116;2024-01-30T01:24:52;102346.22;;;8.58;100.00
51876;BME280;34054;52.100;5.116;2024-01-30T01:25:25;102354.78;;;8.48;100.00
51876;BME280;34054;52.100;5.116;2024-01-30T01:25:56;102355.81;;;8.54;100.00
51876;BME280;34054;52.100;5.116;2024-01-30T01:26:30;102356.03;;;8.59;100.00
51876;BME280;34054;52.100;5.116;2024-01-30T01:27:03;102358.97;;;8.64;100.00
51876;BME280;34054;52.100;5.116;2024-01-30T01:27:34;102350.00;;;8.63;100.00
51876;BME280;34054;52.100;5.116;2024-01-30T01:28:11;102353.34;;;8.66;100.00
51876;BME280;34054;52.100;5.116;2024-01-30T01:28:43;102356.66;;;8.61;100.00
51876;BME280;34054;52.100;5.116;2024-01-30T01:29:15;102357.06;;;8.51;100.00
51876;BME280;34054;52.100;5.116;2024-01-30T01:29:47;102359.97;;;8.49;100.00
51876;BME280;34054;52.100;5.116;2024-01-30T01:30:20;102361.03;;;8.55;100.00
51876;BME280;34054;52.100;5.116;2024-01-30T01:30:52;102359.09;;;8.42;100.00
51876;BME280;34054;52.100;5.116;2024-01-30T01:31:24;102362.50;;;8.51;100.00
51876;BME280;34054;52.100;5.116;2024-01-30T01:31:56;102357.06;;;8.51;100.00
51876;BME280;34054;52.100;5.116;2024-01-30T01:32:29;102346.19;;;8.44;100.00
51876;BME280;34054;52.100;5.116;2024-01-30T01:33:00;102350.34;;;8.33;100.00
51876;BME280;34054;52.100;5.116;2024-01-30T01:33:33;102364.72;;;8.41;100.00
51876;BME280;34054;52.100;5.116;2024-01-30T01:34:05;102355.56;;;8.42;100.00
51876;BME280;34054;52.100;5.116;2024-01-30T01:34:38;102359.16;;;8.49;100.00
51876;BME280;34054;52.100;5.116;2024-01-30T01:35:09;102351.81;;;8.43;100.00
51876;BME280;34054;52.100;5.116;2024-01-30T01:35:42;102348.09;;;8.44;100.00
51876;BME280;34054;52.100;5.116;2024-01-30T01:36:14;102342.00;;;8.35;100.00
51876;BME280;34054;52.100;5.116;2024-01-30T01:36:46;102347.63;;;8.27;100.00
51876;BME280;34054;52.100;5.116;2024-01-30T01:37:17;102351.19;;;8.41;100.00
51876;BME280;34054;52.100;5.116;2024-01-30T01:37:49;102359.16;;;8.49;100.00
51876;BME280;34054;52.100;5.116;2024-01-30T01:38:25;102356.44;;;8.49;100.00
51876;BME280;34054;52.100;5.116;2024-01-30T01:38:57;102353.75;;;8.56;100.00
51876;BME280;34054;52.100;5.116;2024-01-30T01:39:28;102352.47;;;8.52;100.00
51876;BME280;34054;52.100;5.116;2024-01-30T01:40:00;102352.28;;;8.60;100.00
51876;BME280;34054;52.100;5.116;2024-01-30T01:40:34;102353.75;;;8.62;100.00
51876;BME280;34054;52.100;5.116;2024-01-30T01:41:06;102349.38;;;8.55;100.00
51876;BME280;34054;52.100;5.116;2024-01-30T01:41:38;102350.34;;;8.40;100.00
51876;BME280;34054;52.100;5.116;2024-01-30T01:42:09;102357.81;;;8.31;100.00
51876;BME280;34054;52.100;5.116;2024-01-30T01:42:42;102351.16;;;8.34;100.00
51876;BME280;34054;52.100;5.116;2024-01-30T01:43:14;102348.47;;;8.41;100.00
51876;BME280;34054;52.100;5.116;2024-01-30T01:43:45;102353.94;;;8.47;100.00
51876;BME280;34054;52.100;5.116;2024-01-30T01:44:17;102352.47;;;8.52;100.00
51876;BME280;34054;52.100;5.116;2024-01-30T01:44:50;102346.44;;;8.56;100.00
51876;BME280;34054;52.100;5.116;2024-01-30T01:45:22;102341.66;;;8.58;100.00
51876;BME280;34054;52.100;5.116;2024-01-30T01:45:54;102338.53;;;8.48;100.00
51876;BME280;34054;52.100;5.116;2024-01-30T01:46:26;102354.53;;;8.43;100.00
51876;BME280;34054;52.100;5.116;2024-01-30T01:47:02;102353.03;;;8.40;100.00
51876;BME280;34054;52.100;5.116;2024-01-30T01:47:34;102337.41;;;8.22;100.00
51876;BME280;34054;52.100;5.116;2024-01-30T01:48:06;102344.91;;;8.27;100.00
51876;BME280;34054;52.100;5.116;2024-01-30T01:48:39;102329.50;;;8.21;100.00
51876;BME280;34054;52.100;5.116;2024-01-30T01:49:13;102338.66;;;8.20;100.00
51876;BME280;34054;52.100;5.116;2024-01-30T01:49:45;102342.56;;;8.10;100.00
51876;BME280;34054;52.100;5.116;2024-01-30T01:50:18;102334.88;;;8.14;100.00
51876;BME280;34054;52.100;5.116;2024-01-30T01:50:52;102339.88;;;8.17;100.00
51876;BME280;34054;52.100;5.116;2024-01-30T01:51:27;102332.16;;;8.14;100.00
51876;BME280;34054;52.100;5.116;2024-01-30T01:52:00;102340.06;;;8.15;100.00
51876;BME280;34054;52.100;5.116;2024-01-30T01:52:32;102343.19;;;8.19;100.00
51876;BME280;34054;52.100;5.116;2024-01-30T01:53:06;102343.66;;;8.29;100.00
51876;BME280;34054;52.100;5.116;2024-01-30T01:53:40;102346.38;;;8.36;100.00
51876;BME280;34054;52.100;5.116;2024-01-30T01:54:13;102340.94;;;8.29;100.00
51876;BME280;34054;52.100;5.116;2024-01-30T01:54:46;102335.78;;;8.35;100.00
51876;BME280;34054;52.100;5.116;2024-01-30T01:55:19;102330.53;;;8.33;100.00
51876;BME280;34054;52.100;5.116;2024-01-30T01:55:56;102328.66;;;8.27;100.00
51876;BME280;34054;52.100;5.116;2024-01-30T01:56:29;102319.91;;;8.18;100.00
51876;BME280;34054;52.100;5.116;2024-01-30T01:57:01;102334.47;;;8.17;100.00
51876;BME280;34054;52.100;5.116;2024-01-30T01:57:34;102330.75;;;8.18;100.00
51876;BME280;34054;52.100;5.116;2024-01-30T01:58:07;102339.88;;;8.17;100.00
51876;BME280;34054;52.100;5.116;2024-01-30T01:58:41;102334.25;;;8.05;100.00
51876;BME280;34054;52.100;5.116;2024-01-30T01:59:13;102316.09;;;7.99;100.00
51876;BME280;34054;52.100;5.116;2024-01-30T01:59:45;102332.81;;;8.16;100.00
51876;BME280;34054;52.100;5.116;2024-01-30T02:00:18;102340.50;;;8.19;100.00
51876;BME280;34054;52.100;5.116;2024-01-30T02:00:51;102344.69;;;8.22;100.00
51876;BME280;34054;52.100;5.116;2024-01-30T02:01:23;102344.47;;;8.23;100.00
51876;BME280;34054;52.100;5.116;2024-01-30T02:01:56;102350.31;;;8.27;100.00
51876;BME280;34054;52.100;5.116;2024-01-30T02:02:30;102342.63;;;8.30;100.00
51876;BME280;34054;52.100;5.116;2024-01-30T02:03:06;102346.97;;;8.18;100.00
51876;BME280;34054;52.100;5.116;2024-01-30T02:03:41;102335.53;;;8.23;100.00
51876;BME280;34054;52.100;5.116;2024-01-30T02:04:14;102325.75;;;8.28;100.00
51876;BME280;34054;52.100;5.116;2024-01-30T02:04:45;102327.81;;;8.20;100.00
51876;BME280;34054;52.100;5.116;2024-01-30T02:05:17;102332.78;;;8.09;100.00
51876;BME280;34054;52.100;5.116;2024-01-30T02:05:50;102325.69;;;8.01;100.00
51876;BME280;34054;52.100;5.116;2024-01-30T02:06:23;102346.13;;;8.17;100.00
51876;BME280;34054;52.100;5.116;2024-01-30T02:06:55;102338.22;;;8.16;100.00
51876;BME280;34054;52.100;5.116;2024-01-30T02:07:27;102344.22;;;8.05;100.00
51876;BME280;34054;52.100;5.116;2024-01-30T02:07:59;102338.41;;;8.08;100.00
51876;BME280;34054;52.100;5.116;2024-01-30T02:08:32;102333.59;;;8.03;100.00
51876;BME280;34054;52.100;5.116;2024-01-30T02:09:04;102331.50;;;7.98;100.00
51876;BME280;34054;52.100;5.116;2024-01-30T02:09:35;102338.16;;;8.02;100.00
51876;BME280;34054;52.100;5.116;2024-01-30T02:10:08;102336.09;;;8.05;100.00
51876;BME280;34054;52.100;5.116;2024-01-30T02:10:41;102345.25;;;8.04;100.00
51876;BME280;34054;52.100;5.116;2024-01-30T02:11:14;102342.72;;;7.95;100.00
51876;BME280;34054;52.100;5.116;2024-01-30T02:11:47;102335.88;;;7.99;100.00
51876;BME280;34054;52.100;5.116;2024-01-30T02:12:19;102346.53;;;8.08;100.00
51876;BME280;34054;52.100;5.116;2024-01-30T02:12:52;102345.91;;;8.19;100.00
51876;BME280;34054;52.100;5.116;2024-01-30T02:13:23;102342.84;;;8.29;100.00
51876;BME280;34054;52.100;5.116;2024-01-30T02:13:55;102348.47;;;8.34;100.00
51876;BME280;34054;52.100;5.116;2024-01-30T02:14:26;102350.34;;;8.33;100.00
51876;BME280;34054;52.100;5.116;2024-01-30T02:14:59;102346.81;;;8.40;100.00
51876;BME280;34054;52.100;5.116;2024-01-30T02:15:30;102349.50;;;8.33;100.00
51876;BME280;34054;52.100;5.116;2024-01-30T02:16:03;102343.22;;;8.12;100.00
51876;BME280;34054;52.100;5.116;2024-01-30T02:16:35;102347.97;;;8.10;100.00
51876;BME280;34054;52.100;5.116;2024-01-30T02:17:07;102347.59;;;8.13;100.00
51876;BME280;34054;52.100;5.116;2024-01-30T02:17:39;102352.81;;;8.22;100.00
51876;BME280;34054;52.100;5.116;2024-01-30T02:18:10;102352.38;;;8.25;100.00
51876;BME280;34054;52.100;5.116;2024-01-30T02:18:42;102354.91;;;8.26;100.00
51876;BME280;34054;52.100;5.116;2024-01-30T02:19:16;102351.16;;;8.27;100.00
51876;BME280;34054;52.100;5.116;2024-01-30T02:19:49;102343.03;;;8.27;100.00
51876;BME280;34054;52.100;5.116;2024-01-30T02:20:21;102346.56;;;8.21;100.00
51876;BME280;34054;52.100;5.116;2024-01-30T02:20:58;102354.22;;;8.11;100.00
51876;BME280;34054;52.100;5.116;2024-01-30T02:21:34;102348.19;;;8.09;100.00
51876;BME280;34054;52.100;5.116;2024-01-30T02:22:07;102348.97;;;8.02;100.00
51876;BME280;34054;52.100;5.116;2024-01-30T02:22:40;102351.88;;;7.94;100.00
51876;BME280;34054;52.100;5.116;2024-01-30T02:23:12;102344.16;;;7.91;100.00
51876;BME280;34054;52.100;5.116;2024-01-30T02:23:46;102355.81;;;7.92;100.00
51876;BME280;34054;52.100;5.116;2024-01-30T02:24:20;102351.25;;;7.92;100.00
51876;BME280;34054;52.100;5.116;2024-01-30T02:24:52;102353.53;;;7.95;100.00
51876;BME280;34054;52.100;5.116;2024-01-30T02:25:30;102346.09;;;8.04;100.00
51876;BME280;34054;52.100;5.116;2024-01-30T02:26:03;102344.84;;;8.07;100.00
51876;BME280;34054;52.100;5.116;2024-01-30T02:26:35;102354.22;;;8.04;100.00
51876;BME280;34054;52.100;5.116;2024-01-30T02:27:06;102354.44;;;8.09;100.00
51876;BME280;34054;52.100;5.116;2024-01-30T02:27:38;102340.25;;;8.00;100.00
51876;BME280;34054;52.100;5.116;2024-01-30T02:28:11;102351.88;;;7.94;100.00
51876;BME280;34054;52.100;5.116;2024-01-30T02:28:43;102350.22;;;7.93;100.00
51876;BME280;34054;52.100;5.116;2024-01-30T02:29:14;102349.59;;;7.98;100.00
51876;BME280;34054;52.100;5.116;2024-01-30T02:29:46;102348.56;;;7.99;100.00
51876;BME280;34054;52.100;5.116;2024-01-30T02:30:18;102350.22;;;8.00;100.00
51876;BME280;34054;52.100;5.116;2024-01-30T02:30:50;102341.47;;;7.98;100.00
51876;BME280;34054;52.100;5.116;2024-01-30T02:31:22;102347.34;;;8.01;100.00
51876;BME280;34054;52.100;5.116;2024-01-30T02:31:55;102345.50;;;8.09;100.00
51876;BME280;34054;52.100;5.116;2024-01-30T02:32:27;102336.31;;;8.03;100.00
51876;BME280;34054;52.100;5.116;2024-01-30T02:32:59;102334.41;;;7.97;100.00
51876;BME280;34054;52.100;5.116;2024-01-30T02:33:31;102321.88;;;7.89;100.00
51876;BME280;34054;52.100;5.116;2024-01-30T02:34:02;102331.69;;;7.90;100.00
51876;BME280;34054;52.100;5.116;2024-01-30T02:34:35;102332.31;;;7.92;100.00
51876;BME280;34054;52.100;5.116;2024-01-30T02:35:06;102327.16;;;8.04;100.00
51876;BME280;34054;52.100;5.116;2024-01-30T02:35:38;102319.44;;;8.01;100.00
51876;BME280;34054;52.100;5.116;2024-01-30T02:36:10;102312.56;;;7.98;100.00
51876;BME280;34054;52.100;5.116;2024-01-30T02:36:43;102318.19;;;8.04;100.00
51876;BME280;34054;52.100;5.116;2024-01-30T02:37:17;102313.19;;;8.00;100.00
51876;BME280;34054;52.100;5.116;2024-01-30T02:37:48;102317.34;;;7.96;100.00
51876;BME280;34054;52.100;5.116;2024-01-30T02:38:20;102324.38;;;7.91;100.00
51876;BME280;34054;52.100;5.116;2024-01-30T02:38:52;102331.25;;;7.86;100.00
51876;BME280;34054;52.100;5.116;2024-01-30T02:39:24;102328.72;;;7.85;100.00
51876;BME280;34054;52.100;5.116;2024-01-30T02:39:56;102316.25;;;7.84;100.00
51876;BME280;34054;52.100;5.116;2024-01-30T02:40:27;102318.09;;;7.77;100.00
51876;BME280;34054;52.100;5.116;2024-01-30T02:40:59;102325.81;;;7.80;100.00
51876;BME280;34054;52.100;5.116;2024-01-30T02:41:31;102323.75;;;7.82;100.00
51876;BME280;34054;52.100;5.116;2024-01-30T02:42:03;102326.66;;;7.80;100.00
51876;BME280;34054;52.100;5.116;2024-01-30T02:42:36;102326.84;;;7.79;100.00
51876;BME280;34054;52.100;5.116;2024-01-30T02:43:08;102334.31;;;7.77;100.00
51876;BME280;34054;52.100;5.116;2024-01-30T02:43:40;102334.31;;;7.77;100.00
51876;BME280;34054;52.100;5.116;2024-01-30T02:44:12;102325.97;;;7.72;100.00
51876;BME280;34054;52.100;5.116;2024-01-30T02:44:44;102326.38;;;7.68;100.00
51876;BME280;34054;52.100;5.116;2024-01-30T02:45:15;102331.38;;;7.72;100.00
51876;BME280;34054;52.100;5.116;2024-01-30T02:45:48;102333.28;;;7.78;100.00
51876;BME280;34054;52.100;5.116;2024-01-30T02:46:20;102331.03;;;7.88;100.00
51876;BME280;34054;52.100;5.116;2024-01-30T02:46:51;102325.66;;;7.95;100.00
51876;BME280;34054;52.100;5.116;2024-01-30T02:47:25;102330.66;;;7.98;100.00
51876;BME280;34054;52.100;5.116;2024-01-30T02:47:57;102322.53;;;7.98;100.00
51876;BME280;34054;52.100;5.116;2024-01-30T02:48:29;102325.03;;;7.93;100.00
51876;BME280;34054;52.100;5.116;2024-01-30T02:49:01;102322.88;;;7.81;100.00